Terminal Aerodrome Forecast
Issued by NWS

Home | Current Version | Previous Version | Text Only | Print | Product List | Glossary On
Versions: 1 2 3 4 5 6 7 8 9 10 11 12 13 14 15 16 17 18 19 20
000
FTAK31 PAJN 201700
TAFAYA
TAF
PAYA 201724Z 2018/2118 21010KT P6SM -SHRA FEW009 BKN030 OVC040
     FM202200 13007KT P6SM -SHRA SCT020 OVC050
     FM210300 VRB04KT P6SM VCSH SCT025 BKN050
     FM210800 04003KT 6SM BCFG SCT004 SCT100
     FM211500 07008KT P6SM BKN100
      AMD LTD TO CLD VIS AND WIND 2101/2110=

USA.gov is the U.S. government's official web portal to all federal, state and local government web resources and services.